DAL8384 KIAD-KRDU
Flight info
| Callsign | DAL8384 |
|---|---|
| Flight time | 0h 58m |
| Altitude | 22000 |
| Route | JDUBB4 MELTN ALDAN4 |
| Aircraft | SF50/L-SDGRWY/L |
Departure
| Time | 2026-05-07 00:20 |
|---|---|
| Airport | Washington Dulles International Airport (KIAD) |
Arrival
| Time | 2026-05-07 01:18 |
|---|---|
| Airport | Raleigh-Durham International Airport (KRDU) |
| Time | Latitude | Longitude | Altitude | Speed | Heading |
|---|---|---|---|---|---|
| 2026-05-06 23:58 | 38.94587 | -77.44991 | 298 ft | 0 kts | 138° |
| 2026-05-07 00:11 | 38.94593 | -77.44998 | 298 ft | 3 kts | 138° |
| 2026-05-07 00:11 | 38.94607 | -77.45014 | 299 ft | 3 kts | 138° |
| 2026-05-07 00:11 | 38.94617 | -77.45012 | 297 ft | 2 kts | 287° |
| 2026-05-07 00:11 | 38.94627 | -77.45027 | 297 ft | 7 kts | 322° |
| 2026-05-07 00:12 | 38.94654 | -77.45104 | 296 ft | 13 kts | 270° |
| 2026-05-07 00:12 | 38.94664 | -77.45215 | 295 ft | 6 kts | 279° |
| 2026-05-07 00:12 | 38.94666 | -77.45309 | 294 ft | 13 kts | 271° |
| 2026-05-07 00:12 | 38.94667 | -77.45421 | 292 ft | 13 kts | 270° |
| 2026-05-07 00:13 | 38.94668 | -77.45494 | 292 ft | 5 kts | 271° |
| 2026-05-07 00:13 | 38.94668 | -77.45495 | 292 ft | 0 kts | 270° |
| 2026-05-07 00:14 | 38.94668 | -77.45501 | 292 ft | 6 kts | 270° |
| 2026-05-07 00:14 | 38.94659 | -77.45584 | 291 ft | 13 kts | 231° |
| 2026-05-07 00:14 | 38.94560 | -77.45607 | 292 ft | 15 kts | 181° |
| 2026-05-07 00:14 | 38.94472 | -77.45608 | 295 ft | 10 kts | 180° |
| 2026-05-07 00:15 | 38.94414 | -77.45607 | 297 ft | 7 kts | 177° |
| 2026-05-07 00:15 | 38.94394 | -77.45569 | 297 ft | 3 kts | 55° |
| 2026-05-07 00:15 | 38.94388 | -77.45601 | 297 ft | 5 kts | 206° |
| 2026-05-07 00:15 | 38.94320 | -77.45610 | 298 ft | 8 kts | 180° |
| 2026-05-07 00:16 | 38.94260 | -77.45611 | 298 ft | 10 kts | 182° |
| 2026-05-07 00:16 | 38.94172 | -77.45612 | 298 ft | 16 kts | 181° |
| 2026-05-07 00:16 | 38.94060 | -77.45615 | 300 ft | 14 kts | 180° |
| 2026-05-07 00:16 | 38.93979 | -77.45616 | 298 ft | 10 kts | 179° |
| 2026-05-07 00:17 | 38.93899 | -77.45617 | 296 ft | 13 kts | 182° |
| 2026-05-07 00:17 | 38.93793 | -77.45618 | 292 ft | 16 kts | 181° |
| 2026-05-07 00:17 | 38.93715 | -77.45619 | 289 ft | 6 kts | 167° |
| 2026-05-07 00:17 | 38.93675 | -77.45568 | 286 ft | 11 kts | 131° |
| 2026-05-07 00:18 | 38.93597 | -77.45491 | 283 ft | 18 kts | 188° |
| 2026-05-07 00:18 | 38.93489 | -77.45543 | 277 ft | 15 kts | 199° |
| 2026-05-07 00:18 | 38.93410 | -77.45582 | 274 ft | 10 kts | 215° |
| 2026-05-07 00:18 | 38.93382 | -77.45636 | 275 ft | 6 kts | 253° |
| 2026-05-07 00:19 | 38.93392 | -77.45700 | 277 ft | 6 kts | 290° |
| 2026-05-07 00:19 | 38.93448 | -77.45889 | 276 ft | 61 kts | 291° |
| 2026-05-07 00:19 | 38.93693 | -77.46699 | 356 ft | 126 kts | 290° |
| 2026-05-07 00:19 | 38.94029 | -77.47837 | 589 ft | 130 kts | 285° |
| 2026-05-07 00:20 | 38.94314 | -77.48872 | 910 ft | 119 kts | 287° |
| 2026-05-07 00:20 | 38.94505 | -77.49885 | 1098 ft | 125 kts | 276° |
| 2026-05-07 00:20 | 38.94447 | -77.51130 | 1127 ft | 157 kts | 267° |
| 2026-05-07 00:20 | 38.94375 | -77.52569 | 1840 ft | 160 kts | 268° |
| 2026-05-07 00:21 | 38.94290 | -77.53988 | 2629 ft | 160 kts | 269° |
| 2026-05-07 00:21 | 38.94089 | -77.55422 | 3242 ft | 169 kts | 242° |
| 2026-05-07 00:21 | 38.93209 | -77.56353 | 4110 ft | 164 kts | 208° |
| 2026-05-07 00:21 | 38.92065 | -77.56531 | 4830 ft | 169 kts | 184° |
| 2026-05-07 00:22 | 38.90889 | -77.56501 | 5456 ft | 171 kts | 188° |
| 2026-05-07 00:22 | 38.89695 | -77.56519 | 6094 ft | 173 kts | 188° |
| 2026-05-07 00:22 | 38.88483 | -77.56526 | 6702 ft | 175 kts | 189° |
| 2026-05-07 00:22 | 38.87275 | -77.56527 | 7359 ft | 172 kts | 189° |
| 2026-05-07 00:23 | 38.86080 | -77.56531 | 7902 ft | 176 kts | 189° |
| 2026-05-07 00:23 | 38.84847 | -77.56537 | 8487 ft | 178 kts | 190° |
| 2026-05-07 00:23 | 38.83613 | -77.56536 | 9117 ft | 178 kts | 190° |
| 2026-05-07 00:23 | 38.82365 | -77.56537 | 9736 ft | 180 kts | 191° |
| 2026-05-07 00:24 | 38.81110 | -77.56541 | 10298 ft | 181 kts | 191° |
| 2026-05-07 00:24 | 38.79850 | -77.56545 | 10843 ft | 183 kts | 191° |
| 2026-05-07 00:24 | 38.78555 | -77.56544 | 11376 ft | 184 kts | 192° |
| 2026-05-07 00:24 | 38.77284 | -77.56550 | 11907 ft | 186 kts | 192° |
| 2026-05-07 00:25 | 38.75986 | -77.56553 | 12445 ft | 187 kts | 192° |
| 2026-05-07 00:25 | 38.74679 | -77.56554 | 12994 ft | 188 kts | 192° |
| 2026-05-07 00:25 | 38.73361 | -77.56559 | 13509 ft | 191 kts | 193° |
| 2026-05-07 00:25 | 38.72025 | -77.56562 | 13990 ft | 193 kts | 193° |
| 2026-05-07 00:26 | 38.70677 | -77.56563 | 14453 ft | 195 kts | 193° |
| 2026-05-07 00:26 | 38.69317 | -77.56569 | 14916 ft | 196 kts | 194° |
| 2026-05-07 00:26 | 38.67966 | -77.56570 | 15318 ft | 198 kts | 194° |
| 2026-05-07 00:26 | 38.66578 | -77.56574 | 15749 ft | 201 kts | 195° |
| 2026-05-07 00:27 | 38.65176 | -77.56575 | 16188 ft | 202 kts | 195° |
| 2026-05-07 00:27 | 38.63764 | -77.56579 | 16624 ft | 203 kts | 196° |
| 2026-05-07 00:27 | 38.62344 | -77.56582 | 17057 ft | 205 kts | 196° |
| 2026-05-07 00:27 | 38.60913 | -77.56586 | 17475 ft | 207 kts | 197° |
| 2026-05-07 00:28 | 38.59470 | -77.56590 | 17893 ft | 208 kts | 197° |
| 2026-05-07 00:28 | 38.58016 | -77.56591 | 18290 ft | 210 kts | 197° |
| 2026-05-07 00:28 | 38.56553 | -77.56595 | 18647 ft | 211 kts | 198° |
| 2026-05-07 00:28 | 38.55085 | -77.56595 | 18998 ft | 211 kts | 198° |
| 2026-05-07 00:29 | 38.53610 | -77.56600 | 19346 ft | 212 kts | 198° |
| 2026-05-07 00:29 | 38.52132 | -77.56605 | 19689 ft | 213 kts | 199° |
| 2026-05-07 00:30 | 38.47681 | -77.56612 | 20680 ft | 215 kts | 199° |
| 2026-05-07 00:30 | 38.46183 | -77.56614 | 21028 ft | 215 kts | 200° |
| 2026-05-07 00:30 | 38.44688 | -77.56619 | 21334 ft | 215 kts | 200° |
| 2026-05-07 00:30 | 38.43190 | -77.56621 | 21694 ft | 215 kts | 200° |
| 2026-05-07 00:31 | 38.41692 | -77.56649 | 21873 ft | 216 kts | 204° |
| 2026-05-07 00:31 | 38.40215 | -77.56976 | 21882 ft | 215 kts | 212° |
| 2026-05-07 00:31 | 38.38816 | -77.57604 | 21891 ft | 212 kts | 221° |
| 2026-05-07 00:31 | 38.37556 | -77.58492 | 21888 ft | 208 kts | 228° |
| 2026-05-07 00:32 | 38.36358 | -77.59542 | 21892 ft | 212 kts | 228° |
| 2026-05-07 00:32 | 38.35114 | -77.60599 | 21885 ft | 217 kts | 227° |
| 2026-05-07 00:32 | 38.33852 | -77.61668 | 21888 ft | 219 kts | 227° |
| 2026-05-07 00:32 | 38.32581 | -77.62760 | 21888 ft | 221 kts | 227° |
| 2026-05-07 00:33 | 38.31296 | -77.63863 | 21888 ft | 225 kts | 227° |
| 2026-05-07 00:33 | 38.29989 | -77.64982 | 21888 ft | 228 kts | 227° |
| 2026-05-07 00:33 | 38.28665 | -77.66120 | 21888 ft | 230 kts | 227° |
| 2026-05-07 00:33 | 38.27432 | -77.67382 | 21889 ft | 227 kts | 233° |
| 2026-05-07 00:34 | 38.26131 | -77.68601 | 21887 ft | 234 kts | 229° |
| 2026-05-07 00:34 | 38.24809 | -77.69832 | 21886 ft | 238 kts | 228° |
| 2026-05-07 00:34 | 38.23428 | -77.71024 | 21874 ft | 242 kts | 225° |
| 2026-05-07 00:34 | 38.22004 | -77.72191 | 21874 ft | 245 kts | 225° |
| 2026-05-07 00:35 | 38.20570 | -77.73383 | 21873 ft | 247 kts | 225° |
| 2026-05-07 00:35 | 38.19154 | -77.74576 | 21876 ft | 248 kts | 225° |
| 2026-05-07 00:35 | 38.17715 | -77.75787 | 21876 ft | 249 kts | 225° |
| 2026-05-07 00:35 | 38.16266 | -77.77001 | 21878 ft | 250 kts | 225° |
| 2026-05-07 00:36 | 38.14813 | -77.78219 | 21877 ft | 251 kts | 225° |
| 2026-05-07 00:36 | 38.13356 | -77.79439 | 21877 ft | 251 kts | 225° |
| 2026-05-07 00:36 | 38.11895 | -77.80662 | 21878 ft | 252 kts | 225° |
| 2026-05-07 00:36 | 38.10433 | -77.81886 | 21893 ft | 252 kts | 225° |
| 2026-05-07 00:37 | 38.08969 | -77.83106 | 21891 ft | 252 kts | 225° |
| 2026-05-07 00:37 | 38.07526 | -77.84312 | 21893 ft | 252 kts | 225° |
| 2026-05-07 00:37 | 38.06064 | -77.85534 | 21896 ft | 252 kts | 225° |
| 2026-05-07 00:37 | 38.04600 | -77.86762 | 21896 ft | 252 kts | 225° |
| 2026-05-07 00:38 | 38.03150 | -77.88006 | 21899 ft | 251 kts | 226° |
| 2026-05-07 00:38 | 38.01703 | -77.89251 | 21893 ft | 251 kts | 225° |
| 2026-05-07 00:38 | 38.00250 | -77.90494 | 21892 ft | 252 kts | 225° |
| 2026-05-07 00:38 | 37.98793 | -77.91735 | 21892 ft | 253 kts | 225° |
| 2026-05-07 00:39 | 37.97331 | -77.92980 | 21894 ft | 253 kts | 225° |
| 2026-05-07 00:39 | 37.95871 | -77.94226 | 21878 ft | 254 kts | 225° |
| 2026-05-07 00:39 | 37.94407 | -77.95474 | 21879 ft | 254 kts | 225° |
| 2026-05-07 00:39 | 37.92940 | -77.96724 | 21882 ft | 254 kts | 225° |
| 2026-05-07 00:40 | 37.91476 | -77.97969 | 21882 ft | 253 kts | 225° |
| 2026-05-07 00:40 | 37.90036 | -77.99197 | 21881 ft | 253 kts | 225° |
| 2026-05-07 00:40 | 37.88574 | -78.00440 | 21881 ft | 253 kts | 225° |
| 2026-05-07 00:40 | 37.87115 | -78.01679 | 21881 ft | 253 kts | 225° |
| 2026-05-07 00:41 | 37.85656 | -78.02918 | 21888 ft | 252 kts | 225° |
| 2026-05-07 00:41 | 37.84198 | -78.04159 | 21889 ft | 253 kts | 225° |
| 2026-05-07 00:41 | 37.82740 | -78.05398 | 21889 ft | 253 kts | 225° |
| 2026-05-07 00:41 | 37.81280 | -78.06634 | 21890 ft | 253 kts | 225° |
| 2026-05-07 00:42 | 37.79821 | -78.07871 | 21890 ft | 252 kts | 225° |
| 2026-05-07 00:42 | 37.78362 | -78.09109 | 21890 ft | 252 kts | 225° |
| 2026-05-07 00:42 | 37.76904 | -78.10345 | 21892 ft | 252 kts | 225° |
| 2026-05-07 00:42 | 37.75444 | -78.11580 | 21885 ft | 253 kts | 225° |
| 2026-05-07 00:43 | 37.74004 | -78.12801 | 21885 ft | 253 kts | 225° |
| 2026-05-07 00:43 | 37.72544 | -78.14037 | 21883 ft | 252 kts | 225° |
| 2026-05-07 00:43 | 37.71083 | -78.15269 | 21884 ft | 252 kts | 225° |
| 2026-05-07 00:43 | 37.69626 | -78.16505 | 21884 ft | 252 kts | 225° |
| 2026-05-07 00:44 | 37.68167 | -78.17736 | 21888 ft | 252 kts | 225° |
| 2026-05-07 00:44 | 37.66707 | -78.18967 | 21887 ft | 252 kts | 225° |
| 2026-05-07 00:44 | 37.65247 | -78.20201 | 21888 ft | 253 kts | 225° |
| 2026-05-07 00:44 | 37.63787 | -78.21434 | 21889 ft | 253 kts | 224° |
| 2026-05-07 00:45 | 37.62325 | -78.22665 | 21890 ft | 252 kts | 225° |
| 2026-05-07 00:45 | 37.60865 | -78.23897 | 21892 ft | 252 kts | 225° |
| 2026-05-07 00:45 | 37.59406 | -78.25125 | 21885 ft | 253 kts | 224° |
| 2026-05-07 00:45 | 37.58435 | -78.25940 | 21886 ft | 253 kts | 224° |
| 2026-05-07 00:46 | 37.56968 | -78.27180 | 21887 ft | 254 kts | 224° |
| 2026-05-07 00:46 | 37.55019 | -78.28817 | 21889 ft | 255 kts | 224° |
| 2026-05-07 00:46 | 37.53541 | -78.30061 | 21890 ft | 255 kts | 224° |
| 2026-05-07 00:46 | 37.52062 | -78.31303 | 21892 ft | 256 kts | 224° |
| 2026-05-07 00:47 | 37.51083 | -78.32126 | 21898 ft | 256 kts | 224° |
| 2026-05-07 00:47 | 37.49603 | -78.33369 | 21899 ft | 256 kts | 224° |
| 2026-05-07 00:47 | 37.48122 | -78.34613 | 21901 ft | 256 kts | 224° |
| 2026-05-07 00:47 | 37.46637 | -78.35857 | 21902 ft | 256 kts | 224° |
| 2026-05-07 00:48 | 37.45154 | -78.37101 | 21904 ft | 256 kts | 224° |
| 2026-05-07 00:48 | 37.43670 | -78.38344 | 21903 ft | 256 kts | 224° |
| 2026-05-07 00:48 | 37.42186 | -78.39587 | 21903 ft | 256 kts | 224° |
| 2026-05-07 00:48 | 37.40704 | -78.40836 | 21906 ft | 256 kts | 225° |
| 2026-05-07 00:49 | 37.39226 | -78.42080 | 21903 ft | 256 kts | 224° |
| 2026-05-07 00:49 | 37.37737 | -78.43316 | 21900 ft | 256 kts | 224° |
| 2026-05-07 00:49 | 37.36253 | -78.44554 | 21901 ft | 256 kts | 224° |
| 2026-05-07 00:49 | 37.34789 | -78.45783 | 21902 ft | 257 kts | 224° |
| 2026-05-07 00:50 | 37.33299 | -78.47026 | 21904 ft | 256 kts | 224° |
| 2026-05-07 00:50 | 37.31812 | -78.48268 | 21902 ft | 257 kts | 224° |
| 2026-05-07 00:50 | 37.30323 | -78.49513 | 21902 ft | 257 kts | 224° |
| 2026-05-07 00:50 | 37.28829 | -78.50757 | 21900 ft | 258 kts | 224° |
| 2026-05-07 00:51 | 37.27335 | -78.52004 | 21901 ft | 258 kts | 224° |
| 2026-05-07 00:51 | 37.25840 | -78.53248 | 21899 ft | 258 kts | 224° |
| 2026-05-07 00:51 | 37.24345 | -78.54492 | 21901 ft | 258 kts | 224° |
| 2026-05-07 00:51 | 37.22869 | -78.55720 | 21902 ft | 258 kts | 224° |
| 2026-05-07 00:52 | 37.21371 | -78.56967 | 21900 ft | 258 kts | 224° |
| 2026-05-07 00:52 | 37.19873 | -78.58213 | 21901 ft | 259 kts | 224° |
| 2026-05-07 00:52 | 37.18375 | -78.59460 | 21872 ft | 259 kts | 224° |
| 2026-05-07 00:52 | 37.16842 | -78.60742 | 21524 ft | 270 kts | 223° |
| 2026-05-07 00:53 | 37.15256 | -78.62064 | 21127 ft | 278 kts | 222° |
| 2026-05-07 00:53 | 37.13632 | -78.63404 | 20760 ft | 281 kts | 222° |
| 2026-05-07 00:53 | 37.11998 | -78.64756 | 20398 ft | 282 kts | 222° |
| 2026-05-07 00:53 | 37.10363 | -78.66115 | 20039 ft | 283 kts | 222° |
| 2026-05-07 00:54 | 37.08721 | -78.67478 | 19680 ft | 283 kts | 222° |
| 2026-05-07 00:54 | 37.07098 | -78.68822 | 19350 ft | 283 kts | 222° |
| 2026-05-07 00:54 | 37.05459 | -78.70178 | 18997 ft | 282 kts | 222° |
| 2026-05-07 00:54 | 37.03825 | -78.71534 | 18653 ft | 282 kts | 222° |
| 2026-05-07 00:55 | 37.02182 | -78.72896 | 18318 ft | 285 kts | 222° |
| 2026-05-07 00:55 | 37.00524 | -78.74268 | 17937 ft | 287 kts | 222° |
| 2026-05-07 00:55 | 36.98855 | -78.75645 | 17549 ft | 288 kts | 221° |
| 2026-05-07 00:55 | 36.97182 | -78.77027 | 17166 ft | 288 kts | 221° |
| 2026-05-07 00:56 | 36.95511 | -78.78406 | 16960 ft | 286 kts | 221° |
| 2026-05-07 00:56 | 36.93869 | -78.79758 | 16947 ft | 280 kts | 221° |
| 2026-05-07 00:56 | 36.92258 | -78.81085 | 16944 ft | 275 kts | 221° |
| 2026-05-07 00:56 | 36.90673 | -78.82397 | 16947 ft | 272 kts | 222° |
| 2026-05-07 00:57 | 36.89125 | -78.83674 | 16945 ft | 270 kts | 221° |
| 2026-05-07 00:57 | 36.87562 | -78.84960 | 16945 ft | 268 kts | 222° |
| 2026-05-07 00:57 | 36.86008 | -78.86240 | 16945 ft | 267 kts | 222° |
| 2026-05-07 00:57 | 36.84458 | -78.87516 | 16945 ft | 267 kts | 222° |
| 2026-05-07 00:58 | 36.82911 | -78.88789 | 16949 ft | 266 kts | 222° |
| 2026-05-07 00:58 | 36.81367 | -78.90060 | 16950 ft | 266 kts | 222° |
| 2026-05-07 00:58 | 36.79822 | -78.91329 | 16956 ft | 266 kts | 222° |
| 2026-05-07 00:58 | 36.78276 | -78.92598 | 16954 ft | 266 kts | 222° |
| 2026-05-07 00:59 | 36.75190 | -78.95134 | 16954 ft | 265 kts | 222° |
| 2026-05-07 00:59 | 36.73650 | -78.96396 | 16955 ft | 265 kts | 222° |
| 2026-05-07 00:59 | 36.72126 | -78.97643 | 16929 ft | 266 kts | 221° |
| 2026-05-07 01:00 | 36.70568 | -78.98872 | 16957 ft | 267 kts | 217° |
| 2026-05-07 01:00 | 36.68839 | -78.99801 | 16959 ft | 275 kts | 207° |
| 2026-05-07 01:00 | 36.66948 | -79.00354 | 16959 ft | 284 kts | 198° |
| 2026-05-07 01:00 | 36.64942 | -79.00477 | 16967 ft | 294 kts | 187° |
| 2026-05-07 01:01 | 36.62871 | -79.00128 | 16753 ft | 310 kts | 176° |
| 2026-05-07 01:01 | 36.60726 | -78.99484 | 16263 ft | 321 kts | 175° |
| 2026-05-07 01:01 | 36.58552 | -78.98837 | 15775 ft | 321 kts | 175° |
| 2026-05-07 01:01 | 36.56388 | -78.98213 | 15291 ft | 318 kts | 175° |
| 2026-05-07 01:02 | 36.54238 | -78.97595 | 14826 ft | 316 kts | 174° |
| 2026-05-07 01:02 | 36.52108 | -78.96978 | 14361 ft | 313 kts | 174° |
| 2026-05-07 01:02 | 36.49997 | -78.96365 | 13902 ft | 310 kts | 174° |
| 2026-05-07 01:02 | 36.47929 | -78.95767 | 13414 ft | 308 kts | 174° |
| 2026-05-07 01:03 | 36.45860 | -78.95160 | 12796 ft | 304 kts | 173° |
| 2026-05-07 01:03 | 36.43822 | -78.94565 | 12175 ft | 297 kts | 174° |
| 2026-05-07 01:03 | 36.41831 | -78.93959 | 12007 ft | 295 kts | 170° |
| 2026-05-07 01:03 | 36.39943 | -78.92922 | 12004 ft | 299 kts | 157° |
| 2026-05-07 01:04 | 36.38244 | -78.91405 | 11926 ft | 304 kts | 146° |
| 2026-05-07 01:04 | 36.36720 | -78.89490 | 11341 ft | 313 kts | 139° |
| 2026-05-07 01:04 | 36.35229 | -78.87560 | 10768 ft | 307 kts | 140° |
| 2026-05-07 01:04 | 36.33742 | -78.85684 | 10204 ft | 304 kts | 141° |
| 2026-05-07 01:05 | 36.32262 | -78.83815 | 9628 ft | 303 kts | 140° |
| 2026-05-07 01:05 | 36.30800 | -78.81948 | 9054 ft | 301 kts | 140° |
| 2026-05-07 01:05 | 36.29370 | -78.80128 | 9006 ft | 297 kts | 140° |
| 2026-05-07 01:05 | 36.27958 | -78.78364 | 9004 ft | 276 kts | 141° |
| 2026-05-07 01:06 | 36.26649 | -78.76717 | 8836 ft | 268 kts | 141° |
| 2026-05-07 01:06 | 36.25348 | -78.75068 | 8215 ft | 263 kts | 140° |
| 2026-05-07 01:06 | 36.24094 | -78.73470 | 7588 ft | 255 kts | 140° |
| 2026-05-07 01:06 | 36.22868 | -78.71918 | 6991 ft | 250 kts | 140° |
| 2026-05-07 01:07 | 36.21649 | -78.70379 | 6404 ft | 250 kts | 140° |
| 2026-05-07 01:07 | 36.20446 | -78.68851 | 5981 ft | 242 kts | 140° |
| 2026-05-07 01:07 | 36.19269 | -78.67360 | 5971 ft | 250 kts | 141° |
| 2026-05-07 01:07 | 36.17978 | -78.65971 | 5979 ft | 248 kts | 148° |
| 2026-05-07 01:08 | 36.16625 | -78.64649 | 5984 ft | 247 kts | 148° |
| 2026-05-07 01:08 | 36.15285 | -78.63317 | 5983 ft | 247 kts | 148° |
| 2026-05-07 01:08 | 36.13945 | -78.61973 | 5983 ft | 248 kts | 147° |
| 2026-05-07 01:08 | 36.12793 | -78.60375 | 5980 ft | 244 kts | 132° |
| 2026-05-07 01:09 | 36.11864 | -78.58727 | 5953 ft | 224 kts | 130° |
| 2026-05-07 01:09 | 36.10990 | -78.57143 | 5475 ft | 218 kts | 130° |
| 2026-05-07 01:09 | 36.10153 | -78.55623 | 5037 ft | 209 kts | 130° |
| 2026-05-07 01:09 | 36.09183 | -78.54543 | 4985 ft | 174 kts | 171° |
| 2026-05-07 01:10 | 36.08052 | -78.54468 | 5013 ft | 166 kts | 192° |
| 2026-05-07 01:10 | 36.06857 | -78.54533 | 5010 ft | 171 kts | 195° |
| 2026-05-07 01:10 | 36.05936 | -78.55208 | 4998 ft | 154 kts | 236° |
| 2026-05-07 01:10 | 36.05260 | -78.56255 | 4978 ft | 159 kts | 233° |
| 2026-05-07 01:11 | 36.04530 | -78.57322 | 4480 ft | 160 kts | 233° |
| 2026-05-07 01:11 | 36.03835 | -78.58326 | 4021 ft | 144 kts | 232° |
| 2026-05-07 01:11 | 36.03197 | -78.59103 | 3987 ft | 121 kts | 224° |
| 2026-05-07 01:11 | 36.02558 | -78.59800 | 3993 ft | 126 kts | 228° |
| 2026-05-07 01:12 | 36.01929 | -78.60533 | 3995 ft | 122 kts | 229° |
| 2026-05-07 01:12 | 36.01318 | -78.61266 | 3975 ft | 125 kts | 228° |
| 2026-05-07 01:12 | 36.00697 | -78.62042 | 3866 ft | 127 kts | 229° |
| 2026-05-07 01:12 | 36.00080 | -78.62807 | 3705 ft | 123 kts | 229° |
| 2026-05-07 01:13 | 35.99483 | -78.63550 | 3551 ft | 121 kts | 230° |
| 2026-05-07 01:13 | 35.98898 | -78.64283 | 3400 ft | 123 kts | 228° |
| 2026-05-07 01:13 | 35.98287 | -78.65041 | 3240 ft | 126 kts | 228° |
| 2026-05-07 01:13 | 35.97666 | -78.65810 | 3074 ft | 126 kts | 227° |
| 2026-05-07 01:14 | 35.97062 | -78.66564 | 2904 ft | 122 kts | 228° |
| 2026-05-07 01:14 | 35.96458 | -78.67316 | 2745 ft | 124 kts | 227° |
| 2026-05-07 01:14 | 35.95843 | -78.68077 | 2580 ft | 126 kts | 227° |
| 2026-05-07 01:14 | 35.95225 | -78.68849 | 2416 ft | 126 kts | 227° |
| 2026-05-07 01:15 | 35.94611 | -78.69590 | 2247 ft | 122 kts | 226° |
| 2026-05-07 01:15 | 35.94009 | -78.70353 | 2086 ft | 125 kts | 227° |
| 2026-05-07 01:15 | 35.93419 | -78.71103 | 1933 ft | 115 kts | 226° |
| 2026-05-07 01:15 | 35.92833 | -78.71824 | 1774 ft | 122 kts | 226° |
| 2026-05-07 01:16 | 35.92249 | -78.72557 | 1621 ft | 122 kts | 224° |
| 2026-05-07 01:16 | 35.91627 | -78.73290 | 1447 ft | 125 kts | 226° |
| 2026-05-07 01:16 | 35.91104 | -78.73994 | 1305 ft | 99 kts | 227° |
| 2026-05-07 01:16 | 35.90636 | -78.74576 | 1180 ft | 96 kts | 223° |
| 2026-05-07 01:17 | 35.90144 | -78.75165 | 1078 ft | 100 kts | 225° |
| 2026-05-07 01:17 | 35.89617 | -78.75811 | 949 ft | 110 kts | 222° |
| 2026-05-07 01:17 | 35.89081 | -78.76492 | 842 ft | 112 kts | 225° |
| 2026-05-07 01:17 | 35.88574 | -78.77192 | 731 ft | 102 kts | 213° |
| 2026-05-07 01:18 | 35.88029 | -78.77792 | 552 ft | 104 kts | 220° |
| 2026-05-07 01:18 | 35.87585 | -78.78366 | 424 ft | 77 kts | 204° |
| 2026-05-07 01:18 | 35.87270 | -78.78720 | 428 ft | 50 kts | 230° |
| 2026-05-07 01:18 | 35.87056 | -78.79001 | 423 ft | 42 kts | 226° |
| 2026-05-07 01:19 | 35.87043 | -78.79110 | 425 ft | 11 kts | 12° |
| 2026-05-07 01:19 | 35.87094 | -78.79094 | 425 ft | 0 kts | 355° |
| 2026-05-07 01:20 | 35.87139 | -78.79073 | 424 ft | 10 kts | 18° |
| 2026-05-07 01:20 | 35.87196 | -78.79032 | 427 ft | 12 kts | 344° |
| 2026-05-07 01:20 | 35.87237 | -78.79125 | 426 ft | 12 kts | 322° |
| 2026-05-07 01:20 | 35.87294 | -78.79120 | 428 ft | 5 kts | 25° |
| 2026-05-07 01:21 | 35.87295 | -78.79119 | 428 ft | 0 kts | 24° |